Time;durP1;ratioP1;P1;durP2;ratioP2;P2;SDS_P1;SDS_P2;PMS_P1;PMS_P2;Temp;Humidity;BMP_temperature;BMP_pressure;BME280_temperature;BME280_humidity;BME280_pressure;Samples;Min_cycle;Max_cycle;Signal;HPM_P1;HPM_P2
2022/03/25 00:01:54;;;;;;;;;;;6.50;99.90;;;;;;5058974;28;19909;-62
2022/03/25 00:04:20;;;;;;;;;;;6.40;99.90;;;;;;5068221;28;19999;-62
2022/03/25 00:06:45;;;;;;;;;;;6.40;99.90;;;;;;5063242;28;20350;-62
2022/03/25 00:09:11;;;;;;;;;;;6.40;99.90;;;;;;5075201;28;19940;-62
2022/03/25 00:11:37;;;;;;;;;;;6.30;99.90;;;;;;5074808;28;19936;-65
2022/03/25 00:14:04;;;;;;;;;;;6.30;99.90;;;;;;5051127;28;19896;-63
2022/03/25 00:16:29;;;;;;;;;;;6.20;99.90;;;;;;5078158;28;19932;-65
2022/03/25 00:18:55;;;;;;;;;;;6.10;99.90;;;;;;5061286;28;19916;-63
2022/03/25 00:21:21;;;;;;;;;;;6.10;99.90;;;;;;5058521;28;19915;-62
2022/03/25 00:23:46;;;;;;;;;;;6.10;99.90;;;;;;5074228;28;19907;-67
2022/03/25 00:26:12;;;;;;;;;;;6.00;99.90;;;;;;5077041;28;19897;-63
2022/03/25 00:28:38;;;;;;;;;;;6.00;99.90;;;;;;5072703;28;19917;-60
2022/03/25 00:31:07;;;;;;;;;;;6.00;99.90;;;;;;5076910;28;20007;-63
2022/03/25 00:33:33;;;;;;;;;;;6.00;99.90;;;;;;5077189;28;19897;-62
2022/03/25 00:35:58;;;;;;;;;;;6.00;99.90;;;;;;5079859;28;19907;-63
2022/03/25 00:38:24;;;;;;;;;;;5.90;99.90;;;;;;5076493;28;19919;-62
2022/03/25 00:40:49;;;;;;;;;;;5.80;99.90;;;;;;5072533;28;19920;-62
2022/03/25 00:43:16;;;;;;;;;;;5.80;99.90;;;;;;5076373;28;19897;-67
2022/03/25 00:45:41;;;;;;;;;;;5.70;99.90;;;;;;5076360;28;19901;-63
2022/03/25 00:48:07;;;;;;;;;;;5.80;99.90;;;;;;5075768;28;19935;-63
2022/03/25 00:50:33;;;;;;;;;;;5.70;99.90;;;;;;5073152;28;19913;-63
2022/03/25 00:52:59;;;;;;;;;;;5.80;99.90;;;;;;5073095;28;19927;-61
2022/03/25 00:55:25;;;;;;;;;;;5.80;99.90;;;;;;5076123;28;19920;-63
2022/03/25 00:57:54;;;;;;;;;;;5.80;99.90;;;;;;5077763;28;19972;-62
2022/03/25 01:00:20;;;;;;;;;;;5.70;99.90;;;;;;5081173;28;20014;-62
2022/03/25 01:02:46;;;;;;;;;;;5.60;99.90;;;;;;5065510;28;19912;-61
2022/03/25 01:05:12;;;;;;;;;;;5.60;99.90;;;;;;5074070;28;19908;-66
2022/03/25 01:07:38;;;;;;;;;;;5.60;99.90;;;;;;5079118;28;19911;-62
2022/03/25 01:10:03;;;;;;;;;;;5.60;99.90;;;;;;5083174;28;19904;-62
2022/03/25 01:12:29;;;;;;;;;;;5.50;99.90;;;;;;5074776;28;19897;-62
2022/03/25 01:14:55;;;;;;;;;;;5.40;99.90;;;;;;5065074;28;19901;-63
2022/03/25 01:17:20;;;;;;;;;;;5.40;99.90;;;;;;5074659;28;19936;-63
2022/03/25 01:19:46;;;;;;;;;;;5.40;99.90;;;;;;5079085;28;19901;-62
2022/03/25 01:22:12;;;;;;;;;;;5.40;99.90;;;;;;5079076;28;19897;-62
2022/03/25 01:24:38;;;;;;;;;;;5.40;99.90;;;;;;5080762;28;19901;-62
2022/03/25 01:27:04;;;;;;;;;;;5.40;99.90;;;;;;5077248;28;19908;-61
2022/03/25 01:29:29;;;;;;;;;;;5.30;99.90;;;;;;5075083;28;19908;-61
2022/03/25 01:31:55;;;;;;;;;;;5.30;99.90;;;;;;5076405;28;19939;-61
2022/03/25 01:34:21;;;;;;;;;;;5.20;99.90;;;;;;5073956;28;19900;-61
2022/03/25 01:36:47;;;;;;;;;;;5.20;99.90;;;;;;5073118;28;19923;-67
2022/03/25 01:39:12;;;;;;;;;;;5.10;99.90;;;;;;5080965;28;19904;-60
2022/03/25 01:41:38;;;;;;;;;;;5.00;99.90;;;;;;5071101;28;19921;-61
2022/03/25 01:44:04;;;;;;;;;;;5.10;99.90;;;;;;5073598;28;19909;-60
2022/03/25 01:46:30;;;;;;;;;;;5.00;99.90;;;;;;5071111;28;19908;-61
2022/03/25 01:48:56;;;;;;;;;;;5.00;99.90;;;;;;5054465;28;19912;-60
2022/03/25 01:51:27;;;;;;;;;;;5.00;99.90;;;;;;5067494;28;19921;-61
2022/03/25 01:53:53;;;;;;;;;;;4.90;99.90;;;;;;5050967;28;19944;-61
2022/03/25 01:56:19;;;;;;;;;;;4.90;99.90;;;;;;5069825;28;19908;-60
2022/03/25 01:58:45;;;;;;;;;;;4.80;99.90;;;;;;5058609;28;19909;-63
2022/03/25 02:01:10;;;;;;;;;;;4.80;99.90;;;;;;5067916;28;19940;-61
2022/03/25 02:03:37;;;;;;;;;;;4.80;99.90;;;;;;5068927;28;19916;-61
2022/03/25 02:06:04;;;;;;;;;;;4.70;99.90;;;;;;5073408;28;19993;-61
2022/03/25 02:08:29;;;;;;;;;;;4.80;99.90;;;;;;5070076;28;19912;-60
2022/03/25 02:10:56;;;;;;;;;;;4.70;99.90;;;;;;5056211;28;19919;-60
2022/03/25 02:13:21;;;;;;;;;;;4.70;99.90;;;;;;5072595;28;19975;-65
2022/03/25 02:15:47;;;;;;;;;;;4.70;99.90;;;;;;5072392;28;19931;-62
2022/03/25 02:18:15;;;;;;;;;;;4.70;99.90;;;;;;5076663;28;19908;-61
2022/03/25 02:20:41;;;;;;;;;;;4.70;99.90;;;;;;5065446;28;19904;-61
2022/03/25 02:23:08;;;;;;;;;;;4.70;99.90;;;;;;5070260;28;19912;-62
2022/03/25 02:25:33;;;;;;;;;;;4.60;99.90;;;;;;5068269;28;19916;-60
2022/03/25 02:28:00;;;;;;;;;;;4.50;99.90;;;;;;5073308;28;19916;-61
2022/03/25 02:30:27;;;;;;;;;;;4.50;99.90;;;;;;5072305;28;20376;-61
2022/03/25 02:32:53;;;;;;;;;;;4.40;99.90;;;;;;5070225;28;19909;-61
2022/03/25 02:35:19;;;;;;;;;;;4.30;99.90;;;;;;5067594;28;19919;-60
2022/03/25 02:37:44;;;;;;;;;;;4.30;99.90;;;;;;5073140;28;19948;-60
2022/03/25 02:40:10;;;;;;;;;;;4.20;99.90;;;;;;5071264;28;19915;-60
2022/03/25 02:42:36;;;;;;;;;;;4.10;99.90;;;;;;5055777;28;19916;-61
2022/03/25 02:45:02;;;;;;;;;;;4.00;99.90;;;;;;5054483;28;19909;-60
2022/03/25 02:47:28;;;;;;;;;;;4.00;99.90;;;;;;5067469;28;19923;-60
2022/03/25 02:49:54;;;;;;;;;;;4.00;99.90;;;;;;5072178;28;19912;-60
2022/03/25 02:52:19;;;;;;;;;;;4.00;99.90;;;;;;5070871;28;19920;-60
2022/03/25 02:54:45;;;;;;;;;;;4.10;99.90;;;;;;5063284;28;19909;-61
2022/03/25 02:57:10;;;;;;;;;;;4.10;99.90;;;;;;5072287;28;19908;-61
2022/03/25 02:59:36;;;;;;;;;;;4.20;99.90;;;;;;5072935;28;19951;-61
2022/03/25 03:02:02;;;;;;;;;;;4.20;99.90;;;;;;5076567;28;19897;-61
2022/03/25 03:04:27;;;;;;;;;;;4.20;99.90;;;;;;5076526;28;19900;-61
2022/03/25 03:06:53;;;;;;;;;;;4.20;99.90;;;;;;5062739;28;19972;-60
2022/03/25 03:09:19;;;;;;;;;;;4.20;99.90;;;;;;5073673;28;19911;-62
2022/03/25 03:11:45;;;;;;;;;;;4.20;99.90;;;;;;5074568;28;19896;-61
2022/03/25 03:14:11;;;;;;;;;;;4.10;99.90;;;;;;5075716;28;19904;-61
2022/03/25 03:16:36;;;;;;;;;;;4.10;99.90;;;;;;5070793;28;19955;-60
2022/03/25 03:19:02;;;;;;;;;;;4.10;99.90;;;;;;5075244;28;19901;-61
2022/03/25 03:21:29;;;;;;;;;;;4.10;99.90;;;;;;5066603;28;19908;-62
2022/03/25 03:23:55;;;;;;;;;;;4.10;99.90;;;;;;5051418;28;19987;-60
2022/03/25 03:26:21;;;;;;;;;;;4.10;99.90;;;;;;5058432;28;19901;-61
2022/03/25 03:28:47;;;;;;;;;;;4.00;99.90;;;;;;5059855;28;19929;-62
2022/03/25 03:31:13;;;;;;;;;;;4.10;99.90;;;;;;5076647;28;19913;-61
2022/03/25 03:33:38;;;;;;;;;;;4.10;99.90;;;;;;5070802;28;19903;-60
2022/03/25 03:36:04;;;;;;;;;;;4.10;99.90;;;;;;5058181;28;19900;-60
2022/03/25 03:38:30;;;;;;;;;;;4.00;99.90;;;;;;5068405;28;19901;-60
2022/03/25 03:40:55;;;;;;;;;;;3.90;99.90;;;;;;5073617;28;19984;-63
2022/03/25 03:43:21;;;;;;;;;;;3.90;99.90;;;;;;5071642;28;20091;-64
2022/03/25 03:45:47;;;;;;;;;;;3.80;99.90;;;;;;5074763;28;19901;-62
2022/03/25 03:48:12;;;;;;;;;;;3.70;99.90;;;;;;5058992;28;19958;-60
2022/03/25 03:50:38;;;;;;;;;;;3.60;99.90;;;;;;5073299;28;19968;-60
2022/03/25 03:53:04;;;;;;;;;;;3.50;99.90;;;;;;5069764;28;19900;-61
2022/03/25 03:55:30;;;;;;;;;;;3.50;99.90;;;;;;5057184;28;19900;-63
2022/03/25 03:57:55;;;;;;;;;;;3.40;99.90;;;;;;5076047;28;19901;-60
2022/03/25 04:00:21;;;;;;;;;;;3.40;99.90;;;;;;5074007;28;19912;-61
2022/03/25 04:02:48;;;;;;;;;;;3.60;99.90;;;;;;5062279;28;19904;-61
2022/03/25 04:05:14;;;;;;;;;;;3.50;99.90;;;;;;5036265;28;20359;-60
2022/03/25 04:07:44;;;;;;;;;;;3.50;99.90;;;;;;5055415;28;19974;-60
2022/03/25 04:10:09;;;;;;;;;;;3.50;99.90;;;;;;5040291;28;19920;-59
2022/03/25 04:12:35;;;;;;;;;;;3.70;99.90;;;;;;5058185;28;19908;-60
2022/03/25 04:15:01;;;;;;;;;;;3.70;99.90;;;;;;5056226;28;19963;-60
2022/03/25 04:17:27;;;;;;;;;;;3.50;99.90;;;;;;5056241;28;19915;-61
2022/03/25 04:19:52;;;;;;;;;;;3.50;99.90;;;;;;5062826;28;19916;-60
2022/03/25 04:22:18;;;;;;;;;;;3.40;99.90;;;;;;5056966;28;19909;-60
2022/03/25 04:24:43;;;;;;;;;;;3.40;99.90;;;;;;5041207;28;19909;-61
2022/03/25 04:27:09;;;;;;;;;;;3.30;99.90;;;;;;5056229;28;19920;-61
2022/03/25 04:29:37;;;;;;;;;;;3.30;99.90;;;;;;5062876;28;19913;-60
2022/03/25 04:32:03;;;;;;;;;;;3.30;99.90;;;;;;5034234;28;20278;-60
2022/03/25 04:34:29;;;;;;;;;;;3.20;99.90;;;;;;5056865;28;19916;-59
2022/03/25 04:36:54;;;;;;;;;;;3.10;99.90;;;;;;5060688;28;19909;-62
2022/03/25 04:39:20;;;;;;;;;;;3.10;99.90;;;;;;5071460;28;20350;-60
2022/03/25 04:41:45;;;;;;;;;;;3.10;99.90;;;;;;5043715;28;19909;-59
2022/03/25 04:44:11;;;;;;;;;;;3.00;99.90;;;;;;5058588;28;19915;-60
2022/03/25 04:46:37;;;;;;;;;;;3.00;99.90;;;;;;5040788;28;19912;-60
2022/03/25 04:49:05;;;;;;;;;;;3.10;99.90;;;;;;5060243;28;19913;-60
2022/03/25 04:51:31;;;;;;;;;;;3.10;99.90;;;;;;5037962;28;19966;-62
2022/03/25 04:53:57;;;;;;;;;;;3.10;99.90;;;;;;5043608;28;19908;-61
2022/03/25 04:56:22;;;;;;;;;;;3.00;99.90;;;;;;5058675;28;19962;-62
2022/03/25 04:58:48;;;;;;;;;;;3.00;99.90;;;;;;5039969;28;19913;-65
2022/03/25 05:01:13;;;;;;;;;;;3.00;99.90;;;;;;5059271;28;19912;-60
2022/03/25 05:03:39;;;;;;;;;;;3.00;99.90;;;;;;5059827;28;19909;-60
2022/03/25 05:06:05;;;;;;;;;;;3.00;99.90;;;;;;5058587;28;19916;-59
2022/03/25 05:08:31;;;;;;;;;;;3.00;99.90;;;;;;5060561;28;19913;-60
2022/03/25 05:10:56;;;;;;;;;;;2.90;99.90;;;;;;5058449;28;19975;-61
2022/03/25 05:13:22;;;;;;;;;;;3.00;99.90;;;;;;5058605;28;19908;-59
2022/03/25 05:15:48;;;;;;;;;;;3.00;99.90;;;;;;5055124;28;19908;-60
2022/03/25 05:18:14;;;;;;;;;;;3.10;99.90;;;;;;5042178;28;21060;-60
2022/03/25 05:20:39;;;;;;;;;;;3.10;99.90;;;;;;5058450;28;19909;-60
2022/03/25 05:23:05;;;;;;;;;;;3.00;99.90;;;;;;5053478;28;20374;-60
2022/03/25 05:25:31;;;;;;;;;;;3.00;99.90;;;;;;5059617;28;19919;-60
2022/03/25 05:28:00;;;;;;;;;;;3.00;99.90;;;;;;5043417;28;19919;-60
2022/03/25 05:30:26;;;;;;;;;;;3.00;99.90;;;;;;5061259;28;19939;-62
2022/03/25 05:32:54;;;;;;;;;;;3.00;99.90;;;;;;5046598;28;20366;-60
2022/03/25 05:35:20;;;;;;;;;;;3.00;99.90;;;;;;5037278;28;19909;-61
2022/03/25 05:37:46;;;;;;;;;;;3.10;99.90;;;;;;5054329;28;19953;-64
2022/03/25 05:40:12;;;;;;;;;;;3.00;99.90;;;;;;5057966;28;19909;-62
2022/03/25 05:42:38;;;;;;;;;;;3.00;99.90;;;;;;5036519;28;19908;-61
2022/03/25 05:45:05;;;;;;;;;;;3.00;99.90;;;;;;5055855;28;20290;-62
2022/03/25 05:47:30;;;;;;;;;;;3.00;99.90;;;;;;5039684;28;20389;-60
2022/03/25 05:49:57;;;;;;;;;;;2.90;99.90;;;;;;5057483;28;19913;-61
2022/03/25 05:52:22;;;;;;;;;;;2.90;99.90;;;;;;5059215;28;19915;-59
2022/03/25 05:54:48;;;;;;;;;;;3.00;99.90;;;;;;5056041;28;19913;-60
2022/03/25 05:57:14;;;;;;;;;;;2.90;99.90;;;;;;5040558;28;20317;-60
2022/03/25 05:59:39;;;;;;;;;;;2.90;99.90;;;;;;5053498;28;19924;-61
2022/03/25 06:02:05;;;;;;;;;;;2.80;99.90;;;;;;5058637;28;19908;-63
2022/03/25 06:04:31;;;;;;;;;;;2.80;99.90;;;;;;5058572;28;19908;-61
2022/03/25 06:06:56;;;;;;;;;;;2.80;99.90;;;;;;5059330;28;19916;-60
2022/03/25 06:09:22;;;;;;;;;;;2.80;99.90;;;;;;5058598;28;20290;-61
2022/03/25 06:11:47;;;;;;;;;;;2.80;99.90;;;;;;5048010;28;20320;-60
2022/03/25 06:14:13;;;;;;;;;;;2.80;99.90;;;;;;5057731;28;19984;-61
2022/03/25 06:16:41;;;;;;;;;;;2.70;99.90;;;;;;5057332;28;19909;-61
2022/03/25 06:19:07;;;;;;;;;;;2.60;99.90;;;;;;5057705;28;19947;-60
2022/03/25 06:21:33;;;;;;;;;;;2.60;99.90;;;;;;5057246;28;19909;-61
2022/03/25 06:23:58;;;;;;;;;;;2.60;99.90;;;;;;5056540;28;19908;-59
2022/03/25 06:26:24;;;;;;;;;;;2.50;99.90;;;;;;5037343;28;19917;-62
2022/03/25 06:28:49;;;;;;;;;;;2.60;99.90;;;;;;5035211;28;19913;-61
2022/03/25 06:31:15;;;;;;;;;;;2.50;99.90;;;;;;5052079;28;19912;-61
2022/03/25 06:33:41;;;;;;;;;;;2.60;99.90;;;;;;5058332;28;20383;-61
2022/03/25 06:36:13;;;;;;;;;;;2.60;99.90;;;;;;5057178;28;19908;-61
2022/03/25 06:38:39;;;;;;;;;;;2.60;99.90;;;;;;5050327;28;19909;-61
2022/03/25 06:41:05;;;;;;;;;;;2.70;99.90;;;;;;5049927;28;19948;-60
2022/03/25 06:43:30;;;;;;;;;;;2.70;99.90;;;;;;5042419;28;19916;-60
2022/03/25 06:45:56;;;;;;;;;;;2.70;99.90;;;;;;5059045;28;19909;-60
2022/03/25 06:48:22;;;;;;;;;;;2.80;99.90;;;;;;5038111;28;19935;-61
2022/03/25 06:50:47;;;;;;;;;;;2.90;99.90;;;;;;5048307;28;19935;-60
2022/03/25 06:53:13;;;;;;;;;;;2.90;99.90;;;;;;5052399;28;19972;-61
2022/03/25 06:55:43;;;;;;;;;;;3.00;99.90;;;;;;5056403;28;19917;-60
2022/03/25 06:58:10;;;;;;;;;;;3.00;99.90;;;;;;5051299;28;20285;-61
2022/03/25 07:00:35;;;;;;;;;;;3.00;99.90;;;;;;5054672;28;20393;-62
2022/03/25 07:03:01;;;;;;;;;;;3.10;99.90;;;;;;5056241;28;19908;-60
2022/03/25 07:05:30;;;;;;;;;;;3.20;99.90;;;;;;5060179;28;19909;-61
2022/03/25 07:07:55;;;;;;;;;;;3.30;99.90;;;;;;5052303;28;19912;-60
2022/03/25 07:10:23;;;;;;;;;;;3.40;99.90;;;;;;5056957;28;19935;-60
2022/03/25 07:12:51;;;;;;;;;;;3.40;99.90;;;;;;5059648;28;19916;-60
2022/03/25 07:15:16;;;;;;;;;;;3.50;99.90;;;;;;5059802;28;19920;-63
2022/03/25 07:17:43;;;;;;;;;;;3.80;99.90;;;;;;5049282;28;19909;-60
2022/03/25 07:20:10;;;;;;;;;;;3.90;99.90;;;;;;5058634;28;19908;-61
2022/03/25 07:22:36;;;;;;;;;;;3.90;99.90;;;;;;5047274;28;19915;-60
2022/03/25 07:25:02;;;;;;;;;;;4.00;99.90;;;;;;5038119;28;19916;-60
2022/03/25 07:27:28;;;;;;;;;;;4.20;99.90;;;;;;5054755;28;19915;-60
2022/03/25 07:29:53;;;;;;;;;;;4.20;99.90;;;;;;5059278;28;19952;-61
2022/03/25 07:32:19;;;;;;;;;;;4.30;99.90;;;;;;5055941;28;19913;-61
2022/03/25 07:34:45;;;;;;;;;;;4.50;99.90;;;;;;5052626;28;19916;-60
2022/03/25 07:37:10;;;;;;;;;;;4.60;99.90;;;;;;5058341;28;19909;-61
2022/03/25 07:39:36;;;;;;;;;;;4.70;99.90;;;;;;5058532;28;19908;-61
2022/03/25 07:42:01;;;;;;;;;;;4.90;99.90;;;;;;5060812;28;19909;-60
2022/03/25 07:44:27;;;;;;;;;;;5.00;99.90;;;;;;5046326;28;19909;-60
2022/03/25 07:46:53;;;;;;;;;;;5.10;99.90;;;;;;5058209;28;20277;-62
2022/03/25 07:49:19;;;;;;;;;;;5.30;99.90;;;;;;5055123;28;19920;-62
2022/03/25 07:51:47;;;;;;;;;;;5.40;99.90;;;;;;5057293;28;19912;-60
2022/03/25 07:54:12;;;;;;;;;;;5.50;99.90;;;;;;5061022;28;19948;-61
2022/03/25 07:56:38;;;;;;;;;;;5.70;99.90;;;;;;5049586;28;19939;-61
2022/03/25 07:59:04;;;;;;;;;;;5.90;99.90;;;;;;5049194;28;20275;-60
2022/03/25 08:01:30;;;;;;;;;;;6.10;99.90;;;;;;5063249;28;19909;-61
2022/03/25 08:03:56;;;;;;;;;;;6.20;99.90;;;;;;5058923;28;19927;-61
2022/03/25 08:06:22;;;;;;;;;;;6.40;99.90;;;;;;5059234;28;19916;-61
2022/03/25 08:08:48;;;;;;;;;;;6.70;99.90;;;;;;5064644;28;19920;-61
2022/03/25 08:11:14;;;;;;;;;;;6.90;99.90;;;;;;5044724;28;19912;-62
2022/03/25 08:13:39;;;;;;;;;;;7.20;99.90;;;;;;5058148;28;20421;-61
2022/03/25 08:16:05;;;;;;;;;;;7.40;99.90;;;;;;5062329;28;19913;-60
2022/03/25 08:18:31;;;;;;;;;;;7.60;99.90;;;;;;5058071;28;19944;-61
2022/03/25 08:20:57;;;;;;;;;;;7.70;99.90;;;;;;5066942;28;20354;-61
2022/03/25 08:28:57;;;;;;;;;;;8.30;99.90;;;;;;5065497;28;19935;-61
2022/03/25 08:31:23;;;;;;;;;;;8.50;99.90;;;;;;5063349;28;19942;-60
2022/03/25 08:33:50;;;;;;;;;;;8.60;99.90;;;;;;5061670;28;19913;-61
2022/03/25 08:36:17;;;;;;;;;;;8.70;99.90;;;;;;5060547;28;20621;-61
2022/03/25 08:38:42;;;;;;;;;;;8.80;99.90;;;;;;5064198;28;19912;-63
2022/03/25 08:41:08;;;;;;;;;;;8.90;99.90;;;;;;5066882;28;19909;-61
2022/03/25 08:43:34;;;;;;;;;;;9.00;99.90;;;;;;5064859;28;19912;-60
2022/03/25 08:45:59;;;;;;;;;;;9.10;99.90;;;;;;5065744;28;19967;-62
2022/03/25 08:48:25;;;;;;;;;;;9.20;99.90;;;;;;5065995;28;19915;-61
2022/03/25 08:50:51;;;;;;;;;;;9.30;99.90;;;;;;5066672;28;19937;-61
2022/03/25 08:53:17;;;;;;;;;;;9.40;99.90;;;;;;5061890;28;19904;-60
2022/03/25 08:55:43;;;;;;;;;;;9.50;99.90;;;;;;5061371;28;20242;-62
2022/03/25 08:58:08;;;;;;;;;;;9.60;99.90;;;;;;5048093;28;19908;-63
2022/03/25 09:00:34;;;;;;;;;;;9.50;99.90;;;;;;5060986;28;19974;-61
2022/03/25 09:03:00;;;;;;;;;;;9.60;99.90;;;;;;5061739;28;19909;-62
2022/03/25 09:05:25;;;;;;;;;;;9.80;99.90;;;;;;5045977;28;19916;-61
2022/03/25 09:07:51;;;;;;;;;;;9.90;99.90;;;;;;5065026;28;19923;-61
2022/03/25 09:10:16;;;;;;;;;;;10.00;99.90;;;;;;5045060;28;19917;-60
2022/03/25 09:12:43;;;;;;;;;;;10.10;99.90;;;;;;5055426;28;19908;-62
2022/03/25 09:15:09;;;;;;;;;;;10.20;99.90;;;;;;5064949;28;19918;-61
2022/03/25 09:17:35;;;;;;;;;;;10.30;99.90;;;;;;5066548;28;19967;-61
2022/03/25 09:20:03;;;;;;;;;;;10.40;99.90;;;;;;5062016;28;19963;-61
2022/03/25 09:22:30;;;;;;;;;;;10.70;99.90;;;;;;5066007;28;19915;-62
2022/03/25 09:24:55;;;;;;;;;;;10.80;99.90;;;;;;5045040;28;19916;-63
2022/03/25 09:27:21;;;;;;;;;;;10.90;99.90;;;;;;5059386;28;19956;-61
2022/03/25 09:29:47;;;;;;;;;;;11.00;99.90;;;;;;5062531;28;19955;-60
2022/03/25 09:32:13;;;;;;;;;;;11.10;99.90;;;;;;5065058;28;19909;-60
2022/03/25 09:37:23;;;;;;;;;;;11.40;99.90;;;;;;5067076;28;19998;-61
2022/03/25 09:39:50;;;;;;;;;;;11.60;99.90;;;;;;5065895;28;20008;-61
2022/03/25 09:42:15;;;;;;;;;;;11.70;99.90;;;;;;5049113;28;19975;-60
2022/03/25 09:44:42;;;;;;;;;;;11.80;99.90;;;;;;5065755;28;19909;-62
2022/03/25 09:47:10;;;;;;;;;;;11.90;99.90;;;;;;5065643;28;20362;-61
2022/03/25 09:49:38;;;;;;;;;;;12.10;99.90;;;;;;5065710;28;20365;-61
2022/03/25 09:52:05;;;;;;;;;;;12.20;99.90;;;;;;5066173;28;19913;-62
2022/03/25 09:54:31;;;;;;;;;;;12.30;99.90;;;;;;5050696;28;19916;-61
2022/03/25 09:56:56;;;;;;;;;;;12.40;99.90;;;;;;5063637;28;19984;-60
2022/03/25 09:59:22;;;;;;;;;;;12.60;99.90;;;;;;5062551;28;19917;-61
2022/03/25 10:01:48;;;;;;;;;;;12.70;99.90;;;;;;5064908;28;19937;-60
2022/03/25 10:04:32;;;;;;;;;;;12.70;99.90;;;;;;5063092;28;19909;-61
2022/03/25 10:06:58;;;;;;;;;;;12.80;99.90;;;;;;5064897;28;19973;-60
2022/03/25 10:09:23;;;;;;;;;;;12.90;99.90;;;;;;5061993;28;19913;-61
2022/03/25 10:11:49;;;;;;;;;;;13.00;99.90;;;;;;5045091;28;19921;-60
2022/03/25 10:14:17;;;;;;;;;;;13.10;99.90;;;;;;5062441;28;19909;-60
2022/03/25 10:16:45;;;;;;;;;;;13.10;99.90;;;;;;5062118;28;19913;-60
2022/03/25 10:19:11;;;;;;;;;;;13.20;99.90;;;;;;5064755;28;19908;-61
2022/03/25 10:21:49;;;;;;;;;;;13.20;99.90;;;;;;5058116;28;19970;-61
2022/03/25 10:24:18;;;;;;;;;;;13.30;99.90;;;;;;5060154;28;20225;-60
2022/03/25 10:26:45;;;;;;;;;;;13.20;99.30;;;;;;5064365;28;19913;-61
2022/03/25 10:29:23;;;;;;;;;;;13.30;99.50;;;;;;5063588;28;19919;-61
2022/03/25 10:32:05;;;;;;;;;;;13.50;99.00;;;;;;5048738;28;20150;-61
2022/03/25 10:34:31;;;;;;;;;;;13.50;98.60;;;;;;5043580;28;20277;-60
2022/03/25 10:37:01;;;;;;;;;;;13.60;98.40;;;;;;5063309;28;19995;-61
2022/03/25 10:39:30;;;;;;;;;;;13.70;97.90;;;;;;5062879;28;19909;-61
2022/03/25 10:42:00;;;;;;;;;;;13.90;97.90;;;;;;5064010;28;19923;-60
2022/03/25 10:44:40;;;;;;;;;;;14.10;97.10;;;;;;5053783;28;19939;-61
2022/03/25 10:47:14;;;;;;;;;;;14.20;96.50;;;;;;5062196;28;20003;-61
2022/03/25 10:49:43;;;;;;;;;;;14.30;95.90;;;;;;5053494;28;20330;-61
2022/03/25 10:52:24;;;;;;;;;;;14.40;96.70;;;;;;5057400;28;19920;-60
2022/03/25 10:54:50;;;;;;;;;;;14.60;95.40;;;;;;5060670;28;19909;-61
2022/03/25 10:57:17;;;;;;;;;;;14.60;95.40;;;;;;5060971;28;19959;-61
2022/03/25 10:59:56;;;;;;;;;;;14.70;94.80;;;;;;5051276;28;19924;-60
2022/03/25 11:02:22;;;;;;;;;;;14.90;94.60;;;;;;5059602;28;20000;-60
2022/03/25 11:04:48;;;;;;;;;;;14.90;94.40;;;;;;5061222;28;19940;-61
2022/03/25 11:07:14;;;;;;;;;;;14.90;94.50;;;;;;5058025;28;19928;-61
2022/03/25 11:09:40;;;;;;;;;;;14.90;93.80;;;;;;5064505;28;19913;-61
2022/03/25 11:12:06;;;;;;;;;;;14.90;93.60;;;;;;5057655;28;19912;-61
2022/03/25 11:14:32;;;;;;;;;;;15.00;92.90;;;;;;5057854;28;19940;-60
2022/03/25 11:16:59;;;;;;;;;;;15.10;91.80;;;;;;5063216;28;19991;-61
2022/03/25 11:19:25;;;;;;;;;;;15.10;91.70;;;;;;5066852;28;19966;-61
2022/03/25 11:21:51;;;;;;;;;;;15.20;92.30;;;;;;5068434;28;19969;-60
2022/03/25 11:24:19;;;;;;;;;;;15.20;90.60;;;;;;5070052;28;19919;-61
2022/03/25 11:26:47;;;;;;;;;;;15.20;90.20;;;;;;5068849;28;19919;-62
2022/03/25 11:29:13;;;;;;;;;;;15.40;90.60;;;;;;5053332;28;19908;-62
2022/03/25 11:31:58;;;;;;;;;;;15.50;90.10;;;;;;5070921;28;20274;-60
2022/03/25 11:34:26;;;;;;;;;;;15.60;87.70;;;;;;5066422;28;19972;-61
2022/03/25 11:37:10;;;;;;;;;;;15.70;88.90;;;;;;5061215;28;19909;-62
2022/03/25 11:39:36;;;;;;;;;;;15.70;86.00;;;;;;5061921;28;19908;-60
2022/03/25 11:42:03;;;;;;;;;;;15.90;84.40;;;;;;5060859;28;19911;-61
2022/03/25 11:44:29;;;;;;;;;;;15.90;85.50;;;;;;5062397;28;19962;-61
2022/03/25 11:47:01;;;;;;;;;;;15.80;83.80;;;;;;5052414;28;19904;-60
2022/03/25 11:49:27;;;;;;;;;;;16.00;85.10;;;;;;5044064;28;19919;-60
2022/03/25 11:51:53;;;;;;;;;;;16.00;81.20;;;;;;5061165;28;19919;-61
2022/03/25 11:54:37;;;;;;;;;;;16.00;80.10;;;;;;5051870;28;19936;-61
2022/03/25 11:57:06;;;;;;;;;;;16.20;79.50;;;;;;5041738;28;19912;-61
2022/03/25 11:59:48;;;;;;;;;;;16.10;79.10;;;;;;5056559;28;19916;-61
2022/03/25 12:02:42;;;;;;;;;;;16.00;80.60;;;;;;5053556;28;20247;-61
2022/03/25 12:05:26;;;;;;;;;;;16.00;78.60;;;;;;5054487;28;20118;-61
2022/03/25 12:08:10;;;;;;;;;;;16.10;79.00;;;;;;5057118;28;19912;-60
2022/03/25 12:10:45;;;;;;;;;;;16.10;77.70;;;;;;5058413;28;19912;-61
2022/03/25 12:13:11;;;;;;;;;;;16.10;78.00;;;;;;5050549;28;20259;-59
2022/03/25 12:15:40;;;;;;;;;;;16.20;79.30;;;;;;5051861;28;19909;-61
2022/03/25 12:18:25;;;;;;;;;;;16.10;77.90;;;;;;5035731;28;19920;-62
2022/03/25 12:20:50;;;;;;;;;;;16.10;81.20;;;;;;5049614;28;19908;-61
2022/03/25 12:23:16;;;;;;;;;;;16.20;79.00;;;;;;5062520;28;19959;-61
2022/03/25 12:25:43;;;;;;;;;;;16.20;80.10;;;;;;5058991;28;19935;-63
2022/03/25 12:28:09;;;;;;;;;;;16.30;81.70;;;;;;5044444;28;20328;-61
2022/03/25 12:30:37;;;;;;;;;;;16.40;80.50;;;;;;5059918;28;19985;-67
2022/03/25 12:33:07;;;;;;;;;;;16.40;81.80;;;;;;5038079;28;19908;-61
2022/03/25 12:35:35;;;;;;;;;;;16.30;80.90;;;;;;5064263;28;19909;-61
2022/03/25 12:38:00;;;;;;;;;;;16.30;81.50;;;;;;5065647;28;20154;-62
2022/03/25 12:40:30;;;;;;;;;;;16.30;82.60;;;;;;5062264;28;19951;-61
2022/03/25 12:42:58;;;;;;;;;;;16.30;82.70;;;;;;5065103;28;19939;-61
2022/03/25 12:45:31;;;;;;;;;;;16.40;82.50;;;;;;5059641;28;19909;-62
2022/03/25 12:47:56;;;;;;;;;;;16.50;81.60;;;;;;5065407;28;19915;-61
2022/03/25 12:50:23;;;;;;;;;;;16.50;81.00;;;;;;5063891;28;19952;-61
2022/03/25 12:52:59;;;;;;;;;;;16.50;81.80;;;;;;5063589;28;19958;-62
2022/03/25 12:55:25;;;;;;;;;;;16.40;82.20;;;;;;5060881;28;19948;-63
2022/03/25 12:57:51;;;;;;;;;;;16.50;81.90;;;;;;5069829;28;19996;-60
2022/03/25 13:00:17;;;;;;;;;;;16.70;80.20;;;;;;5054200;28;19924;-62
2022/03/25 13:02:44;;;;;;;;;;;16.70;75.30;;;;;;5056194;28;19912;-60
2022/03/25 13:05:12;;;;;;;;;;;16.70;74.60;;;;;;5048469;28;19923;-61
2022/03/25 13:07:39;;;;;;;;;;;16.50;73.90;;;;;;5050033;28;19905;-61
2022/03/25 13:10:05;;;;;;;;;;;16.60;74.10;;;;;;5049783;28;19909;-61
2022/03/25 13:12:32;;;;;;;;;;;16.70;73.30;;;;;;5052694;28;20007;-62
2022/03/25 13:14:58;;;;;;;;;;;16.80;72.50;;;;;;5039924;28;19909;-61
2022/03/25 13:17:24;;;;;;;;;;;16.70;71.40;;;;;;5038897;28;19909;-62
2022/03/25 13:19:54;;;;;;;;;;;16.70;72.30;;;;;;5038856;28;19937;-62
2022/03/25 13:22:20;;;;;;;;;;;16.80;71.20;;;;;;5054094;28;19988;-61
2022/03/25 13:24:55;;;;;;;;;;;16.80;70.00;;;;;;5057148;28;19968;-61
2022/03/25 13:27:21;;;;;;;;;;;16.80;69.20;;;;;;5043292;28;19912;-62
2022/03/25 13:29:47;;;;;;;;;;;16.80;70.00;;;;;;5036473;28;19909;-62
2022/03/25 13:32:27;;;;;;;;;;;16.70;71.10;;;;;;5046729;28;19977;-61
2022/03/25 13:35:10;;;;;;;;;;;16.80;70.20;;;;;;5031485;28;20259;-62
2022/03/25 13:37:36;;;;;;;;;;;16.80;71.70;;;;;;5028210;28;19909;-61
2022/03/25 13:40:02;;;;;;;;;;;16.80;72.10;;;;;;5055580;28;19909;-60
2022/03/25 13:42:32;;;;;;;;;;;16.80;71.10;;;;;;5051372;28;19909;-62
2022/03/25 13:45:04;;;;;;;;;;;16.90;69.80;;;;;;5043773;28;19916;-62
2022/03/25 13:47:29;;;;;;;;;;;17.10;71.20;;;;;;5043311;28;19909;-61
2022/03/25 13:50:11;;;;;;;;;;;17.00;71.10;;;;;;5030571;28;19901;-63
2022/03/25 13:52:37;;;;;;;;;;;17.00;71.30;;;;;;5052960;28;19909;-61
2022/03/25 13:55:13;;;;;;;;;;;17.10;73.20;;;;;;5057329;28;19916;-62
2022/03/25 13:57:39;;;;;;;;;;;17.10;73.40;;;;;;5053604;28;20369;-62
2022/03/25 14:00:11;;;;;;;;;;;17.20;74.90;;;;;;5063386;28;19952;-62
2022/03/25 14:02:40;;;;;;;;;;;17.40;73.20;;;;;;5060902;28;19916;-63
2022/03/25 14:05:13;;;;;;;;;;;17.50;72.10;;;;;;5040015;28;19935;-67
2022/03/25 14:07:38;;;;;;;;;;;17.50;72.70;;;;;;5066673;28;19916;-60
2022/03/25 14:10:06;;;;;;;;;;;17.40;72.50;;;;;;5051348;28;19913;-64
2022/03/25 14:12:33;;;;;;;;;;;17.30;73.10;;;;;;5071230;28;19909;-61
2022/03/25 14:15:00;;;;;;;;;;;17.40;73.00;;;;;;5067091;28;19917;-61
2022/03/25 14:17:29;;;;;;;;;;;17.40;73.70;;;;;;5076172;28;19913;-61
2022/03/25 14:19:58;;;;;;;;;;;17.30;75.10;;;;;;5071188;28;19919;-61
2022/03/25 14:22:24;;;;;;;;;;;17.30;75.20;;;;;;5054651;28;20440;-62
2022/03/25 14:24:50;;;;;;;;;;;17.40;76.10;;;;;;5071908;28;19903;-66
2022/03/25 14:27:16;;;;;;;;;;;17.50;76.40;;;;;;5051409;28;19909;-61
2022/03/25 14:29:41;;;;;;;;;;;17.40;75.50;;;;;;5074700;28;19920;-62
2022/03/25 14:32:08;;;;;;;;;;;17.50;75.60;;;;;;5073934;28;19940;-63
2022/03/25 14:34:35;;;;;;;;;;;17.70;75.40;;;;;;5055858;28;19928;-63